KINW

Winslow-Lindbergh Regional Airport

Winslow, Arizona, USA
METAR KINW 171356Z AUTO 23003KT 10SM CLR M03/M09 A3024 RMK AO2 SLP250 T10331094
Observed Flight Rules
Dec-17 @ 13:56 UTC (35 minutes ago) Visual Flight Rules
Wind Visibility Clouds
230° at 3 knots 10 miles
  • Clear skies
Temperatures Readings
Current -3°C / 27°F
Dewpoint -9°C / 16°F
Humidity 64%
Altimeter 30.24" Hg
Pressure 1025 hPa
Elevation 1490
METAR KINW 171356Z AUTO 23003KT 10SM CLR M03/M09 A3024 RMK AO2 SLP250 T10331094
Observed Flight Rules
Dec-17 @ 13:56 UTC
(35 minutes ago)
VFR
Wind Visibility
230° at 3 knots 10 miles
Clouds
  • Clear skies
Temperature Dewpoint
-3°C / 27°F -9°C / 16°F
Humidity Altimeter Pressure
64% 30.24" Hg 1025 hPa